createdAt,value
2022-12-20T00:00:31.622Z,-0.10
2022-12-20T00:01:39.587Z,-0.50
2022-12-20T00:02:43.417Z,-0.50
2022-12-20T00:03:46.095Z,-0.50
2022-12-20T00:04:49.672Z,-0.50
2022-12-20T00:05:57.388Z,-0.50
2022-12-20T00:07:00.971Z,-0.50
2022-12-20T00:08:03.862Z,-0.50
2022-12-20T00:09:10.355Z,-1.00
2022-12-20T00:10:15.156Z,0.10
2022-12-20T00:11:24.640Z,-0.50
2022-12-20T00:12:27.031Z,-0.50
2022-12-20T00:13:30.778Z,-0.60
2022-12-20T00:14:34.704Z,-0.50
2022-12-20T00:15:42.599Z,-0.50
2022-12-20T00:16:46.311Z,-0.50
2022-12-20T00:17:48.798Z,-0.50
2022-12-20T00:18:54.341Z,0.00
2022-12-20T00:19:56.652Z,-0.40
2022-12-20T00:21:00.428Z,-0.40
2022-12-20T00:22:03.776Z,-0.40
2022-12-20T00:23:06.161Z,-0.40
2022-12-20T00:24:22.229Z,0.70
2022-12-20T00:25:32.743Z,-0.10
2022-12-20T00:26:38.349Z,-0.40
2022-12-20T00:27:40.862Z,0.30
2022-12-20T00:28:45.794Z,-0.30
2022-12-20T00:29:48.509Z,-0.30
2022-12-20T00:30:55.369Z,-0.30
2022-12-20T00:31:59.023Z,-0.20
2022-12-20T00:33:01.714Z,-0.20
2022-12-20T00:34:05.531Z,-0.20
2022-12-20T00:35:08.677Z,-0.20
2022-12-20T00:36:12.564Z,-0.10
2022-12-20T00:37:15.605Z,-0.10
2022-12-20T00:38:19.132Z,-0.20
2022-12-20T00:39:23.546Z,-0.10
2022-12-20T00:40:26.995Z,-0.10
2022-12-20T00:41:32.477Z,-0.10
2022-12-20T00:42:35.922Z,-0.10
2022-12-20T00:43:41.657Z,-0.10
2022-12-20T00:44:46.464Z,0.50
2022-12-20T00:45:48.934Z,-0.10
2022-12-20T00:46:57.470Z,-0.10
2022-12-20T00:48:00.001Z,0.20
2022-12-20T00:49:03.509Z,-0.10
2022-12-20T00:50:07.554Z,1.80
2022-12-20T00:51:13.182Z,-0.10
2022-12-20T00:52:24.454Z,0.00
2022-12-20T00:53:29.109Z,0.00
2022-12-20T00:54:33.628Z,0.00
2022-12-20T00:55:41.928Z,0.10
2022-12-20T00:56:44.412Z,0.40
2022-12-20T00:57:48.669Z,0.10
2022-12-20T00:59:02.137Z,0.10
2022-12-20T01:00:08.385Z,0.00
2022-12-20T01:01:19.611Z,0.10
2022-12-20T01:02:25.453Z,0.20
2022-12-20T01:03:28.251Z,0.30
2022-12-20T01:04:31.765Z,0.20
2022-12-20T01:05:34.926Z,1.20
2022-12-20T01:06:39.015Z,0.10
2022-12-20T01:07:41.720Z,0.20
2022-12-20T01:08:45.261Z,0.20
2022-12-20T01:09:49.100Z,0.20
2022-12-20T01:11:00.391Z,0.20
2022-12-20T01:12:03.840Z,0.30
2022-12-20T01:13:06.483Z,0.30
2022-12-20T01:14:13.606Z,0.30
2022-12-20T01:15:16.395Z,0.30
2022-12-20T01:16:26.509Z,0.40
2022-12-20T01:17:33.996Z,0.40
2022-12-20T01:18:40.351Z,0.30
2022-12-20T01:19:45.686Z,0.40
2022-12-20T01:20:48.226Z,0.40
2022-12-20T01:21:51.569Z,-0.40
2022-12-20T01:22:54.816Z,0.50
2022-12-20T01:23:58.887Z,0.40
2022-12-20T01:25:03.642Z,0.40
2022-12-20T01:26:09.376Z,0.40
2022-12-20T01:27:12.820Z,2.00
2022-12-20T01:28:15.448Z,0.50
2022-12-20T01:29:19.046Z,0.50
2022-12-20T01:30:21.909Z,0.60
2022-12-20T01:31:26.511Z,0.50
2022-12-20T01:32:28.983Z,-1.00
2022-12-20T01:33:32.775Z,0.50
2022-12-20T01:34:36.819Z,0.50
2022-12-20T01:35:39.277Z,0.60
2022-12-20T01:36:42.845Z,0.60
2022-12-20T01:37:45.538Z,0.70
2022-12-20T01:38:50.024Z,1.50
2022-12-20T01:39:52.718Z,0.70
2022-12-20T01:40:58.649Z,0.80
2022-12-20T01:42:02.129Z,0.80
2022-12-20T01:43:04.668Z,0.80
2022-12-20T01:44:47.180Z,0.80
2022-12-20T01:45:51.143Z,0.80
2022-12-20T01:46:56.235Z,0.70
2022-12-20T01:48:01.454Z,0.80
2022-12-20T01:49:10.893Z,1.50
2022-12-20T01:50:13.831Z,0.90
2022-12-20T01:51:18.458Z,0.60
2022-12-20T01:52:28.598Z,0.60
2022-12-20T01:53:33.455Z,-1.00
2022-12-20T01:54:41.533Z,0.60
2022-12-20T01:55:47.984Z,0.60
2022-12-20T01:56:56.406Z,0.60
2022-12-20T01:58:06.090Z,2.10
2022-12-20T01:59:09.431Z,0.70
2022-12-20T02:00:15.202Z,0.70
2022-12-20T02:01:20.801Z,0.70
2022-12-20T02:02:25.720Z,0.70
2022-12-20T02:03:32.776Z,0.60
2022-12-20T02:04:36.723Z,0.70
2022-12-20T02:05:42.665Z,0.70
2022-12-20T02:06:50.401Z,0.80
2022-12-20T02:08:00.639Z,0.20
2022-12-20T02:09:07.834Z,0.80
2022-12-20T02:10:12.879Z,0.80
2022-12-20T02:11:55.414Z,0.80
2022-12-20T02:13:08.567Z,1.00
2022-12-20T02:14:26.702Z,0.90
2022-12-20T02:15:44.439Z,0.90
2022-12-20T02:16:58.417Z,1.00
2022-12-20T02:18:17.026Z,0.80
2022-12-20T02:19:47.045Z,0.90
2022-12-20T02:21:15.423Z,0.90
2022-12-20T02:22:30.794Z,0.80
2022-12-20T02:24:09.961Z,0.90
2022-12-20T02:25:44.069Z,0.80
2022-12-20T02:27:26.273Z,0.90
2022-12-20T02:28:55.606Z,0.90
2022-12-20T02:30:12.578Z,0.90
2022-12-20T02:31:25.297Z,1.00
2022-12-20T02:32:36.379Z,1.00
2022-12-20T02:33:43.154Z,1.00
2022-12-20T02:34:47.013Z,1.00
2022-12-20T02:35:50.433Z,1.10
2022-12-20T02:36:53.669Z,0.90
2022-12-20T02:37:59.426Z,0.90
2022-12-20T02:39:01.958Z,0.90
2022-12-20T02:40:08.077Z,0.90
2022-12-20T02:41:18.848Z,0.90
2022-12-20T02:42:28.435Z,0.20
2022-12-20T02:43:52.959Z,1.00
2022-12-20T02:45:17.300Z,1.10
2022-12-20T02:46:27.969Z,1.10
2022-12-20T02:47:38.431Z,1.10
2022-12-20T02:48:44.225Z,1.10
2022-12-20T02:49:49.091Z,1.20
2022-12-20T02:50:58.246Z,1.10
2022-12-20T02:52:03.654Z,1.10
2022-12-20T02:53:10.009Z,1.20
2022-12-20T02:54:15.752Z,1.40
2022-12-20T02:55:32.455Z,1.10
2022-12-20T02:56:41.934Z,1.10
2022-12-20T02:57:59.865Z,1.10
2022-12-20T02:59:09.281Z,1.10
2022-12-20T03:00:17.083Z,1.10
2022-12-20T03:01:30.967Z,1.10
2022-12-20T03:02:56.069Z,1.10
2022-12-20T03:04:01.484Z,1.10
2022-12-20T03:05:05.573Z,1.20
2022-12-20T03:06:08.327Z,1.10
2022-12-20T03:07:15.111Z,1.10
2022-12-20T03:08:18.168Z,1.00
2022-12-20T03:09:21.509Z,1.00
2022-12-20T03:10:24.953Z,1.10
2022-12-20T03:11:28.655Z,1.10
2022-12-20T03:12:31.400Z,-0.20
2022-12-20T03:13:36.223Z,1.00
2022-12-20T03:14:44.468Z,1.00
2022-12-20T03:15:50.106Z,1.10
2022-12-20T03:16:54.399Z,1.10
2022-12-20T03:17:57.799Z,2.20
2022-12-20T03:19:00.227Z,2.50
2022-12-20T03:20:04.018Z,1.10
2022-12-20T03:21:06.939Z,1.20
2022-12-20T03:22:10.501Z,1.20
2022-12-20T03:23:13.337Z,1.20
2022-12-20T03:24:17.754Z,1.30
2022-12-20T03:25:20.368Z,1.30
2022-12-20T03:26:24.149Z,1.30
2022-12-20T03:27:31.779Z,1.30
2022-12-20T03:28:36.490Z,1.20
2022-12-20T03:29:41.644Z,1.40
2022-12-20T03:31:31.175Z,1.30
2022-12-20T03:32:36.248Z,1.30
2022-12-20T03:33:40.019Z,1.30
2022-12-20T03:34:43.644Z,1.30
2022-12-20T03:35:49.606Z,1.40
2022-12-20T03:36:54.183Z,1.50
2022-12-20T03:37:58.304Z,1.50
2022-12-20T03:39:01.831Z,1.50
2022-12-20T03:40:10.514Z,1.50
2022-12-20T03:41:12.935Z,1.50
2022-12-20T03:42:16.367Z,1.50
2022-12-20T03:43:18.839Z,1.60
2022-12-20T03:44:22.470Z,1.60
2022-12-20T03:45:25.488Z,1.70
2022-12-20T03:46:29.207Z,1.70
2022-12-20T03:47:32.764Z,1.70
2022-12-20T03:48:37.972Z,1.70
2022-12-20T03:49:40.662Z,1.70
2022-12-20T03:50:45.021Z,1.60
2022-12-20T03:51:47.646Z,1.70
2022-12-20T03:52:51.118Z,1.70
2022-12-20T03:53:53.706Z,1.70
2022-12-20T03:54:59.896Z,1.70
2022-12-20T03:56:11.417Z,1.60
2022-12-20T03:57:16.513Z,1.60
2022-12-20T03:58:21.968Z,1.70
2022-12-20T03:59:25.512Z,1.80
2022-12-20T04:00:30.854Z,1.80
2022-12-20T04:01:49.558Z,1.00
2022-12-20T04:02:53.369Z,1.80
2022-12-20T04:03:57.964Z,1.80
2022-12-20T04:05:01.350Z,3.30
2022-12-20T04:06:03.748Z,1.80
2022-12-20T04:07:07.582Z,1.80
2022-12-20T04:08:13.581Z,1.90
2022-12-20T04:09:17.167Z,1.90
2022-12-20T04:10:31.002Z,3.60
2022-12-20T04:11:35.093Z,1.90
2022-12-20T04:12:44.127Z,2.40
2022-12-20T04:13:52.430Z,1.90
2022-12-20T04:14:58.611Z,1.90
2022-12-20T04:16:01.552Z,0.60
2022-12-20T04:17:08.809Z,2.00
2022-12-20T04:18:12.535Z,0.40
2022-12-20T04:19:17.856Z,1.90
2022-12-20T04:20:22.255Z,1.80
2022-12-20T04:21:36.111Z,1.80
2022-12-20T04:22:39.948Z,2.20
2022-12-20T04:23:45.256Z,1.80
2022-12-20T04:24:49.169Z,1.70
2022-12-20T04:25:59.651Z,1.70
2022-12-20T04:27:03.144Z,1.70
2022-12-20T04:28:07.329Z,1.70
2022-12-20T04:29:09.834Z,1.60
2022-12-20T04:30:14.757Z,1.50
2022-12-20T04:31:23.560Z,1.50
2022-12-20T04:32:28.164Z,1.50
2022-12-20T04:33:30.839Z,1.50
2022-12-20T04:34:36.013Z,1.60
2022-12-20T04:35:38.889Z,1.60
2022-12-20T04:36:42.345Z,1.50
2022-12-20T04:37:51.951Z,1.60
2022-12-20T04:38:55.068Z,1.60
2022-12-20T04:39:59.766Z,1.60
2022-12-20T04:41:22.499Z,1.60
2022-12-20T04:42:31.239Z,1.50
2022-12-20T04:43:34.153Z,1.60
2022-12-20T04:44:38.989Z,1.60
2022-12-20T04:45:43.175Z,1.60
2022-12-20T04:46:46.106Z,1.70
2022-12-20T04:47:52.156Z,1.70
2022-12-20T04:49:00.998Z,2.00
2022-12-20T04:50:09.790Z,1.70
2022-12-20T04:51:13.145Z,1.70
2022-12-20T04:52:34.731Z,1.70
2022-12-20T04:53:50.009Z,1.80
2022-12-20T04:55:10.379Z,1.80
2022-12-20T04:56:14.046Z,1.80
2022-12-20T04:57:16.397Z,1.80
2022-12-20T04:58:19.850Z,2.00
2022-12-20T04:59:24.699Z,1.90
2022-12-20T05:00:29.580Z,1.80
2022-12-20T05:01:40.451Z,1.90
2022-12-20T05:02:43.574Z,0.90
2022-12-20T05:03:51.086Z,1.80
2022-12-20T05:04:53.996Z,1.80
2022-12-20T05:05:59.435Z,1.80
2022-12-20T05:07:02.286Z,1.80
2022-12-20T05:08:09.585Z,1.80
2022-12-20T05:09:14.045Z,1.90
2022-12-20T05:10:17.508Z,1.90
2022-12-20T05:11:21.825Z,2.00
2022-12-20T05:12:26.251Z,1.90
2022-12-20T05:13:33.016Z,1.90
2022-12-20T05:14:36.577Z,1.80
2022-12-20T05:15:40.194Z,1.80
2022-12-20T05:16:44.235Z,1.70
2022-12-20T05:17:47.188Z,0.40
2022-12-20T05:18:50.695Z,1.70
2022-12-20T05:19:54.538Z,1.70
2022-12-20T05:21:19.655Z,1.70
2022-12-20T05:22:43.446Z,1.60
2022-12-20T05:24:06.935Z,1.70
2022-12-20T05:25:40.948Z,1.70
2022-12-20T05:26:44.612Z,1.80
2022-12-20T05:27:47.182Z,3.10
2022-12-20T05:28:50.848Z,1.90
2022-12-20T05:29:53.672Z,1.90
2022-12-20T05:30:58.183Z,1.90
2022-12-20T05:32:01.401Z,1.90
2022-12-20T05:33:05.331Z,2.00
2022-12-20T05:34:08.949Z,2.30
2022-12-20T05:35:13.108Z,2.00
2022-12-20T05:36:18.681Z,2.10
2022-12-20T05:37:21.407Z,2.10
2022-12-20T05:38:25.668Z,2.10
2022-12-20T05:39:29.583Z,2.00
2022-12-20T05:40:35.802Z,2.10
2022-12-20T05:41:40.587Z,2.00
2022-12-20T05:42:43.707Z,2.00
2022-12-20T05:43:47.964Z,2.10
2022-12-20T05:44:51.659Z,2.10
2022-12-20T05:46:00.347Z,2.10
2022-12-20T05:47:10.388Z,2.10
2022-12-20T05:48:16.695Z,2.30
2022-12-20T05:49:20.413Z,2.00
2022-12-20T05:50:23.487Z,2.10
2022-12-20T05:51:46.994Z,2.10
2022-12-20T05:53:11.987Z,2.20
2022-12-20T05:54:21.621Z,2.20
2022-12-20T05:55:45.293Z,2.20
2022-12-20T05:56:49.143Z,2.20
2022-12-20T05:57:55.777Z,2.20
2022-12-20T05:59:15.303Z,2.10
2022-12-20T06:00:19.532Z,3.90
2022-12-20T06:01:26.652Z,2.20
2022-12-20T06:02:34.114Z,2.20
2022-12-20T06:03:41.429Z,2.20
2022-12-20T06:04:48.251Z,2.20
2022-12-20T06:06:00.538Z,2.20
2022-12-20T06:07:08.013Z,2.30
2022-12-20T06:08:13.553Z,2.30
2022-12-20T06:09:16.124Z,2.30
2022-12-20T06:10:25.448Z,2.40
2022-12-20T06:11:32.874Z,2.40
2022-12-20T06:12:45.352Z,2.40
2022-12-20T06:13:49.288Z,2.40
2022-12-20T06:14:51.813Z,2.60
2022-12-20T06:15:55.900Z,2.50
2022-12-20T06:16:59.727Z,2.50
2022-12-20T06:18:02.508Z,2.50
2022-12-20T06:19:05.983Z,2.50
2022-12-20T06:20:09.542Z,2.50
2022-12-20T06:21:13.293Z,2.50
2022-12-20T06:22:17.128Z,2.60
2022-12-20T06:23:27.664Z,2.50
2022-12-20T06:24:44.337Z,2.50
2022-12-20T06:25:51.839Z,2.40
2022-12-20T06:26:55.643Z,1.20
2022-12-20T06:28:02.184Z,2.50
2022-12-20T06:29:09.242Z,2.60
2022-12-20T06:30:20.676Z,2.40
2022-12-20T06:31:43.049Z,2.60
2022-12-20T06:32:45.861Z,2.60
2022-12-20T06:33:49.797Z,3.10
2022-12-20T06:34:53.684Z,2.70
2022-12-20T06:35:57.875Z,2.70
2022-12-20T06:37:00.572Z,2.80
2022-12-20T06:38:09.061Z,2.20
2022-12-20T06:39:11.831Z,4.00
2022-12-20T06:40:24.522Z,2.70
2022-12-20T06:41:27.409Z,3.10
2022-12-20T06:42:31.238Z,2.70
2022-12-20T06:43:33.791Z,2.70
2022-12-20T06:44:38.674Z,3.00
2022-12-20T06:45:42.613Z,2.70
2022-12-20T06:46:49.272Z,2.60
2022-12-20T06:47:53.083Z,2.60
2022-12-20T06:48:57.178Z,2.60
2022-12-20T06:50:05.481Z,2.60
2022-12-20T06:51:08.565Z,2.60
2022-12-20T06:52:12.270Z,2.60
2022-12-20T06:53:23.987Z,2.60
2022-12-20T06:54:26.764Z,2.60
2022-12-20T06:55:30.247Z,2.70
2022-12-20T06:56:37.700Z,2.70
2022-12-20T06:57:46.221Z,2.70
2022-12-20T06:58:51.439Z,2.80
2022-12-20T06:59:55.251Z,2.80
2022-12-20T07:00:58.100Z,2.90
2022-12-20T07:02:02.709Z,2.90
2022-12-20T07:03:06.457Z,2.90
2022-12-20T07:04:08.853Z,2.90
2022-12-20T07:05:12.527Z,3.00
2022-12-20T07:06:15.366Z,3.00
2022-12-20T07:07:18.740Z,3.00
2022-12-20T07:08:23.937Z,3.00
2022-12-20T07:09:27.471Z,3.00
2022-12-20T07:10:29.823Z,3.00
2022-12-20T07:11:33.509Z,3.00
2022-12-20T07:12:36.208Z,3.10
2022-12-20T07:13:41.800Z,3.10
2022-12-20T07:14:45.824Z,3.10
2022-12-20T07:15:48.353Z,3.10
2022-12-20T07:16:52.033Z,3.10
2022-12-20T07:17:54.814Z,3.10
2022-12-20T07:18:58.275Z,3.30
2022-12-20T07:20:05.147Z,3.20
2022-12-20T07:21:09.997Z,3.20
2022-12-20T07:22:13.785Z,3.20
2022-12-20T07:23:16.448Z,3.10
2022-12-20T07:24:21.793Z,3.20
2022-12-20T07:25:24.809Z,1.60
2022-12-20T07:26:28.985Z,2.60
2022-12-20T07:27:32.633Z,3.20
2022-12-20T07:28:35.208Z,3.10
2022-12-20T07:29:40.333Z,3.20
2022-12-20T07:30:43.686Z,3.20
2022-12-20T07:31:46.055Z,3.20
2022-12-20T07:32:50.356Z,3.20
2022-12-20T07:33:52.929Z,3.20
2022-12-20T07:34:56.392Z,3.10
2022-12-20T07:36:01.899Z,3.40
2022-12-20T07:37:05.656Z,3.10
2022-12-20T07:38:08.146Z,3.10
2022-12-20T07:39:11.881Z,3.20
2022-12-20T07:40:17.330Z,3.20
2022-12-20T07:41:19.696Z,3.10
2022-12-20T07:42:23.098Z,3.80
2022-12-20T07:43:26.460Z,3.10
2022-12-20T07:44:30.571Z,3.10
2022-12-20T07:45:34.192Z,3.10
2022-12-20T07:46:37.982Z,3.20
2022-12-20T07:47:42.269Z,3.20
2022-12-20T07:48:46.273Z,3.20
2022-12-20T07:49:50.380Z,3.30
2022-12-20T07:50:56.177Z,3.30
2022-12-20T07:52:04.613Z,3.20
2022-12-20T07:53:10.545Z,3.30
2022-12-20T07:54:20.081Z,3.30
2022-12-20T07:55:31.791Z,3.30
2022-12-20T07:56:43.899Z,3.30
2022-12-20T07:57:52.432Z,3.40
2022-12-20T07:59:02.406Z,3.40
2022-12-20T08:00:07.451Z,3.40
2022-12-20T08:01:17.288Z,3.40
2022-12-20T08:02:27.056Z,3.50
2022-12-20T08:03:36.762Z,3.50
2022-12-20T08:04:39.532Z,3.50
2022-12-20T08:05:48.272Z,3.50
2022-12-20T08:06:56.638Z,3.60
2022-12-20T08:08:03.371Z,3.60
2022-12-20T08:09:08.479Z,3.40
2022-12-20T08:10:16.806Z,3.50
2022-12-20T08:11:24.641Z,3.50
2022-12-20T08:12:31.718Z,3.50
2022-12-20T08:13:39.365Z,3.50
2022-12-20T08:14:46.742Z,3.60
2022-12-20T08:15:49.600Z,3.50
2022-12-20T08:16:54.200Z,3.50
2022-12-20T08:17:58.809Z,3.60
2022-12-20T08:19:02.671Z,3.50
2022-12-20T08:20:07.578Z,3.50
2022-12-20T08:21:13.090Z,3.50
2022-12-20T08:22:16.732Z,3.50
2022-12-20T08:23:20.395Z,2.30
2022-12-20T08:24:23.047Z,3.60
2022-12-20T08:25:27.000Z,3.60
2022-12-20T08:26:31.830Z,3.50
2022-12-20T08:27:35.512Z,3.60
2022-12-20T08:28:39.406Z,3.60
2022-12-20T08:29:43.013Z,3.60
2022-12-20T08:30:46.811Z,3.90
2022-12-20T08:31:50.975Z,3.60
2022-12-20T08:32:53.841Z,3.60
2022-12-20T08:34:00.656Z,4.40
2022-12-20T08:35:04.332Z,3.50
2022-12-20T08:36:10.368Z,4.90
2022-12-20T08:37:15.235Z,3.40
2022-12-20T08:38:18.972Z,3.50
2022-12-20T08:39:22.663Z,3.50
2022-12-20T08:40:26.103Z,3.50
2022-12-20T08:41:31.980Z,2.20
2022-12-20T08:42:34.694Z,3.40
2022-12-20T08:43:39.368Z,3.40
2022-12-20T08:44:44.122Z,3.40
2022-12-20T08:45:52.775Z,3.40
2022-12-20T08:46:56.046Z,3.50
2022-12-20T08:47:59.447Z,3.50
2022-12-20T08:49:03.219Z,3.50
2022-12-20T08:50:08.417Z,3.50
2022-12-20T08:51:13.542Z,3.50
2022-12-20T08:52:16.942Z,3.50
2022-12-20T08:53:20.277Z,3.50
2022-12-20T08:54:23.970Z,3.60
2022-12-20T08:55:29.226Z,3.70
2022-12-20T08:56:34.322Z,3.70
2022-12-20T08:57:37.867Z,3.80
2022-12-20T08:58:42.922Z,3.80
2022-12-20T08:59:45.619Z,3.90
2022-12-20T09:00:49.249Z,4.00
2022-12-20T09:01:53.802Z,4.00
2022-12-20T09:02:56.416Z,4.00
2022-12-20T09:04:00.018Z,3.90
2022-12-20T09:05:05.220Z,3.90
2022-12-20T09:06:11.574Z,3.90
2022-12-20T09:07:14.849Z,3.00
2022-12-20T09:08:18.236Z,5.10
2022-12-20T09:09:20.541Z,3.90
2022-12-20T09:10:24.227Z,5.30
2022-12-20T09:11:28.416Z,4.00
2022-12-20T09:12:33.193Z,4.00
2022-12-20T09:13:43.104Z,3.50
2022-12-20T09:14:47.415Z,4.20
2022-12-20T09:15:54.106Z,4.00
2022-12-20T09:16:58.057Z,4.10
2022-12-20T09:18:01.543Z,5.50
2022-12-20T09:19:06.769Z,4.10
2022-12-20T09:20:10.040Z,4.20
2022-12-20T09:21:16.066Z,4.20
2022-12-20T09:22:21.542Z,4.30
2022-12-20T09:23:24.401Z,4.40
2022-12-20T09:24:28.201Z,3.00
2022-12-20T09:25:31.615Z,4.40
2022-12-20T09:26:35.378Z,4.40
2022-12-20T09:27:40.897Z,4.70
2022-12-20T09:28:44.350Z,4.50
2022-12-20T09:29:48.403Z,4.60
2022-12-20T09:30:51.596Z,4.60
2022-12-20T09:31:55.292Z,4.60
2022-12-20T09:32:57.823Z,4.70
2022-12-20T09:34:13.296Z,4.80
2022-12-20T09:35:22.625Z,4.90
2022-12-20T09:36:28.475Z,4.40
2022-12-20T09:37:32.334Z,5.00
2022-12-20T09:38:36.255Z,5.00
2022-12-20T09:39:45.522Z,5.10
2022-12-20T09:40:52.109Z,6.30
2022-12-20T09:41:56.154Z,5.30
2022-12-20T09:43:01.486Z,5.40
2022-12-20T09:44:13.405Z,5.50
2022-12-20T09:45:26.140Z,5.10
2022-12-20T09:46:28.890Z,5.60
2022-12-20T09:47:37.266Z,5.60
2022-12-20T09:48:40.957Z,5.60
2022-12-20T09:49:48.529Z,5.60
2022-12-20T09:51:07.579Z,5.60
2022-12-20T09:52:31.357Z,5.60
2022-12-20T09:53:48.403Z,5.70
2022-12-20T09:55:05.956Z,5.70
2022-12-20T09:56:21.650Z,5.70
2022-12-20T09:57:34.588Z,5.90
2022-12-20T09:59:01.196Z,5.70
2022-12-20T10:00:10.209Z,5.90
2022-12-20T10:01:24.703Z,5.90
2022-12-20T10:03:59.963Z,4.60
2022-12-20T10:05:04.214Z,6.10
2022-12-20T10:06:20.813Z,6.20
2022-12-20T10:07:39.060Z,6.20
2022-12-20T10:08:49.083Z,6.10
2022-12-20T10:10:12.089Z,6.10
2022-12-20T10:11:46.350Z,6.10
2022-12-20T10:13:11.940Z,6.10
2022-12-20T10:14:42.043Z,5.30
2022-12-20T10:15:53.847Z,6.10
2022-12-20T10:17:05.551Z,5.90
2022-12-20T10:18:32.324Z,7.10
2022-12-20T10:20:08.734Z,5.70
2022-12-20T10:21:22.712Z,5.30
2022-12-20T10:22:31.717Z,5.80
2022-12-20T10:23:44.237Z,5.80
2022-12-20T10:25:02.503Z,5.80
2022-12-20T10:26:11.793Z,5.80
2022-12-20T10:27:18.686Z,5.80
2022-12-20T10:28:28.136Z,5.90
2022-12-20T10:29:33.761Z,5.80
2022-12-20T10:30:37.170Z,5.80
2022-12-20T10:31:41.396Z,5.80
2022-12-20T10:32:48.263Z,6.30
2022-12-20T10:33:52.211Z,6.30
2022-12-20T10:35:05.219Z,6.30
2022-12-20T10:36:27.119Z,6.30
2022-12-20T10:37:30.953Z,6.30
2022-12-20T10:38:45.981Z,6.40
2022-12-20T10:39:52.020Z,6.40
2022-12-20T10:41:23.532Z,6.30
2022-12-20T10:42:37.377Z,6.20
2022-12-20T10:43:46.615Z,6.20
2022-12-20T10:44:51.990Z,7.90
2022-12-20T10:46:03.204Z,6.20
2022-12-20T10:47:30.998Z,6.20
2022-12-20T10:48:37.064Z,6.20
2022-12-20T10:49:41.577Z,6.30
2022-12-20T10:50:55.805Z,6.70
2022-12-20T10:52:14.322Z,6.80
2022-12-20T10:53:24.787Z,6.80
2022-12-20T10:54:33.616Z,6.80
2022-12-20T10:55:39.828Z,7.10
2022-12-20T10:56:56.876Z,7.20
2022-12-20T10:58:07.634Z,5.50
2022-12-20T10:59:40.011Z,7.10
2022-12-20T11:00:50.887Z,7.10
2022-12-20T11:01:53.711Z,7.10
2022-12-20T11:03:13.049Z,7.00
2022-12-20T11:04:28.962Z,6.90
2022-12-20T11:05:31.951Z,6.90
2022-12-20T11:06:46.369Z,6.80
2022-12-20T11:08:33.028Z,6.70
2022-12-20T11:09:27.216Z,6.60
2022-12-20T11:10:30.667Z,6.40
2022-12-20T11:11:34.190Z,6.30
2022-12-20T11:12:36.825Z,6.20
2022-12-20T11:13:41.183Z,6.20
2022-12-20T11:14:49.149Z,6.90
2022-12-20T11:15:58.008Z,6.20
2022-12-20T11:17:08.656Z,6.10
2022-12-20T11:18:21.003Z,6.20
2022-12-20T11:19:58.165Z,6.40
2022-12-20T11:21:17.865Z,6.50
2022-12-20T11:22:35.943Z,6.50
2022-12-20T11:23:46.980Z,6.50
2022-12-20T11:25:02.892Z,6.40
2022-12-20T11:26:26.000Z,6.40
2022-12-20T11:27:38.670Z,6.40
2022-12-20T11:29:03.383Z,6.20
2022-12-20T11:30:15.436Z,7.30
2022-12-20T11:31:33.462Z,6.00
2022-12-20T11:33:08.437Z,5.80
2022-12-20T11:34:24.092Z,5.70
2022-12-20T11:35:40.667Z,5.60
2022-12-20T11:37:05.454Z,4.80
2022-12-20T11:38:24.858Z,4.20
2022-12-20T11:39:36.466Z,5.20
2022-12-20T11:40:50.909Z,5.10
2022-12-20T11:42:04.932Z,5.00
2022-12-20T11:43:54.248Z,5.00
2022-12-20T11:45:11.272Z,5.00
2022-12-20T11:46:31.837Z,4.90
2022-12-20T11:48:04.872Z,4.90
2022-12-20T11:49:32.412Z,5.00
2022-12-20T11:51:00.027Z,4.90
2022-12-20T11:52:11.095Z,3.90
2022-12-20T11:53:21.874Z,4.90
2022-12-20T11:54:33.645Z,5.00
2022-12-20T11:55:42.172Z,5.00
2022-12-20T11:56:48.017Z,5.10
2022-12-20T11:59:37.949Z,5.20
2022-12-20T12:00:48.674Z,5.20
2022-12-20T12:02:01.914Z,5.20
2022-12-20T12:03:15.437Z,5.10
2022-12-20T12:04:23.933Z,5.10
2022-12-20T12:05:33.199Z,5.10
2022-12-20T12:06:42.377Z,5.10
2022-12-20T12:07:53.648Z,5.10
2022-12-20T12:09:13.347Z,5.10
2022-12-20T12:10:23.591Z,5.20
2022-12-20T12:12:05.889Z,5.30
2022-12-20T12:13:08.284Z,5.30
2022-12-20T12:14:20.960Z,6.20
2022-12-20T12:15:33.566Z,5.50
2022-12-20T12:16:43.000Z,5.70
2022-12-20T12:17:53.694Z,5.80
2022-12-20T12:18:59.838Z,5.90
2022-12-20T12:20:23.477Z,5.90
2022-12-20T12:21:29.763Z,6.00
2022-12-20T12:22:39.075Z,5.80
2022-12-20T12:23:55.703Z,5.90
2022-12-20T12:25:05.614Z,7.30
2022-12-20T12:26:17.337Z,5.90
2022-12-20T12:27:25.705Z,5.90
2022-12-20T12:28:28.587Z,5.90
2022-12-20T12:29:35.788Z,5.80
2022-12-20T12:30:44.971Z,5.70
2022-12-20T12:31:56.809Z,5.80
2022-12-20T12:33:11.217Z,5.70
2022-12-20T12:34:45.559Z,5.60
2022-12-20T12:36:10.610Z,5.70
2022-12-20T12:37:44.865Z,5.70
2022-12-20T12:39:21.237Z,5.70
2022-12-20T12:41:00.599Z,5.70
2022-12-20T12:42:33.417Z,5.60
2022-12-20T12:43:48.236Z,5.60
2022-12-20T12:44:58.421Z,5.70
2022-12-20T12:46:03.568Z,5.60
2022-12-20T12:47:16.622Z,5.60
2022-12-20T12:48:28.443Z,5.60
2022-12-20T12:49:35.046Z,5.60
2022-12-20T12:50:47.457Z,5.10
2022-12-20T12:51:54.628Z,5.70
2022-12-20T12:53:06.384Z,5.70
2022-12-20T12:54:23.698Z,5.70
2022-12-20T12:55:43.530Z,5.80
2022-12-20T12:56:48.854Z,5.80
2022-12-20T12:57:56.638Z,5.80
2022-12-20T12:59:35.866Z,5.70
2022-12-20T13:00:59.251Z,5.70
2022-12-20T13:02:26.784Z,5.70
2022-12-20T13:03:46.247Z,5.70
2022-12-20T13:04:58.535Z,5.70
2022-12-20T13:06:37.779Z,5.70
2022-12-20T13:07:44.578Z,5.70
2022-12-20T13:09:12.062Z,5.70
2022-12-20T13:11:09.747Z,5.70
2022-12-20T13:12:49.920Z,5.70
2022-12-20T13:14:14.002Z,5.60
2022-12-20T13:15:52.921Z,5.60
2022-12-20T13:17:35.201Z,5.50
2022-12-20T13:18:38.678Z,5.60
2022-12-20T13:19:53.362Z,5.60
2022-12-20T13:21:33.162Z,5.50
2022-12-20T13:22:38.882Z,5.40
2022-12-20T13:23:41.369Z,5.50
2022-12-20T13:24:56.452Z,5.50
2022-12-20T13:26:00.763Z,4.10
2022-12-20T13:27:33.372Z,5.50
2022-12-20T13:28:50.805Z,5.50
2022-12-20T13:29:58.655Z,5.50
2022-12-20T13:31:34.913Z,5.50
2022-12-20T13:33:14.274Z,5.40
2022-12-20T13:34:41.215Z,5.40
2022-12-20T13:35:56.479Z,5.30
2022-12-20T13:37:00.330Z,5.60
2022-12-20T13:38:06.065Z,5.30
2022-12-20T13:39:33.411Z,5.20
2022-12-20T13:40:41.197Z,5.20
2022-12-20T13:41:55.527Z,5.20
2022-12-20T13:43:05.701Z,4.40
2022-12-20T13:44:42.343Z,5.20
2022-12-20T13:45:49.092Z,5.20
2022-12-20T13:46:58.856Z,5.20
2022-12-20T13:48:11.342Z,5.20
2022-12-20T13:49:23.143Z,5.30
2022-12-20T13:50:35.568Z,5.30
2022-12-20T13:51:39.735Z,6.70
2022-12-20T13:52:46.842Z,5.30
2022-12-20T13:54:03.309Z,5.30
2022-12-20T13:55:17.902Z,5.30
2022-12-20T13:56:42.674Z,5.30
2022-12-20T13:57:51.238Z,5.30
2022-12-20T13:58:56.452Z,5.30
2022-12-20T14:00:07.887Z,5.30
2022-12-20T14:01:15.531Z,5.30
2022-12-20T14:02:22.831Z,5.30
2022-12-20T14:03:29.078Z,5.20
2022-12-20T14:04:42.703Z,5.30
2022-12-20T14:05:46.852Z,5.20
2022-12-20T14:06:57.597Z,5.20
2022-12-20T14:08:03.855Z,5.10
2022-12-20T14:09:33.973Z,5.10
2022-12-20T14:10:38.376Z,5.10
2022-12-20T14:11:48.437Z,5.00
2022-12-20T14:12:53.785Z,3.40
2022-12-20T14:13:59.251Z,5.00
2022-12-20T14:15:04.548Z,5.00
2022-12-20T14:16:15.895Z,5.00
2022-12-20T14:17:24.797Z,4.90
2022-12-20T14:18:28.454Z,5.00
2022-12-20T14:19:30.956Z,5.00
2022-12-20T14:20:38.111Z,5.00
2022-12-20T14:21:45.441Z,5.00
2022-12-20T14:23:04.310Z,5.00
2022-12-20T14:24:18.104Z,5.00
2022-12-20T14:25:31.203Z,5.00
2022-12-20T14:26:44.757Z,5.00
2022-12-20T14:27:49.706Z,5.00
2022-12-20T14:28:55.999Z,5.10
2022-12-20T14:29:58.441Z,5.00
2022-12-20T14:31:04.503Z,5.00
2022-12-20T14:32:18.601Z,5.00
2022-12-20T14:33:34.579Z,5.00
2022-12-20T14:34:41.981Z,5.00
2022-12-20T14:35:48.521Z,4.90
2022-12-20T14:36:52.881Z,5.00
2022-12-20T14:38:02.552Z,4.90
2022-12-20T14:39:24.932Z,4.90
2022-12-20T14:40:28.704Z,4.80
2022-12-20T14:41:36.677Z,4.50
2022-12-20T14:42:42.013Z,5.60
2022-12-20T14:43:46.139Z,4.70
2022-12-20T14:44:49.975Z,4.70
2022-12-20T14:46:25.768Z,4.80
2022-12-20T14:47:29.069Z,4.80
2022-12-20T14:48:32.986Z,4.80
2022-12-20T14:49:40.123Z,3.60
2022-12-20T14:50:54.003Z,4.70
2022-12-20T14:52:09.022Z,4.80
2022-12-20T14:53:21.341Z,4.20
2022-12-20T14:55:06.244Z,5.10
2022-12-20T14:55:54.116Z,5.20
2022-12-20T14:56:58.158Z,5.40
2022-12-20T14:58:01.932Z,5.40
2022-12-20T14:59:16.177Z,5.40
2022-12-20T15:00:27.729Z,5.30
2022-12-20T15:01:37.255Z,5.30
2022-12-20T15:02:53.273Z,5.20
2022-12-20T15:03:59.201Z,6.30
2022-12-20T15:05:23.647Z,4.90
2022-12-20T15:06:36.851Z,4.90
2022-12-20T15:07:43.059Z,4.90
2022-12-20T15:08:47.898Z,4.80
2022-12-20T15:09:51.417Z,4.70
2022-12-20T15:11:03.691Z,5.00
2022-12-20T15:12:10.606Z,4.60
2022-12-20T15:13:16.313Z,4.60
2022-12-20T15:14:36.721Z,4.50
2022-12-20T15:15:41.284Z,4.50
2022-12-20T15:16:49.499Z,4.50
2022-12-20T15:17:52.106Z,4.50
2022-12-20T15:18:57.776Z,4.50
2022-12-20T15:20:02.586Z,4.50